Time;durP1;ratioP1;P1;durP2;ratioP2;P2;SDS_P1;SDS_P2;PMS_P1;PMS_P2;Temp;Humidity;BMP_temperature;BMP_pressure;BME280_temperature;BME280_humidity;BME280_pressure;Samples;Min_cycle;Max_cycle;Signal;HPM_P1;HPM_P2
2021/06/16 00:00:22;;;;;;;9.20;4.25;;;20.80;99.90;;;21.22;54.07;101688.47;5134519;27;20072;-66
2021/06/16 00:02:51;;;;;;;8.18;4.10;;;20.80;99.90;;;21.21;54.14;101677.78;5134966;27;20051;-66
2021/06/16 00:05:23;;;;;;;6.60;4.05;;;20.80;99.90;;;21.18;54.50;101685.94;5134847;27;20050;-66
2021/06/16 00:07:51;;;;;;;8.93;4.57;;;20.80;99.90;;;21.03;54.22;101654.19;5134610;27;20499;-66
2021/06/16 00:10:24;;;;;;;7.70;4.22;;;20.80;99.90;;;21.04;54.16;101662.19;5134956;27;20232;-66
2021/06/16 00:12:53;;;;;;;6.25;3.75;;;20.80;99.90;;;21.14;54.44;101674.41;5134486;27;20500;-66
2021/06/16 00:15:27;;;;;;;7.72;4.10;;;20.80;99.90;;;21.08;54.25;101668.38;5134431;27;20043;-66
2021/06/16 00:17:56;;;;;;;9.27;4.13;;;20.80;99.90;;;21.08;54.46;101668.38;5134698;27;20047;-66
2021/06/16 00:20:24;;;;;;;10.80;4.45;;;20.70;99.90;;;20.90;54.19;101650.13;5134282;27;20511;-66
2021/06/16 00:22:54;;;;;;;7.28;4.30;;;20.60;99.90;;;20.87;54.60;101650.22;5133665;27;20047;-66
2021/06/16 00:25:22;;;;;;;10.60;4.68;;;20.50;99.90;;;20.79;54.54;101652.31;5134131;27;20557;-66
2021/06/16 00:27:51;;;;;;;9.48;4.72;;;20.50;99.90;;;20.30;55.55;101643.19;5134169;27;20071;-66
2021/06/16 00:30:22;;;;;;;8.85;4.35;;;20.20;99.90;;;20.09;55.97;101625.00;5134314;27;20050;-66
2021/06/16 00:32:50;;;;;;;9.25;4.57;;;20.00;99.90;;;20.10;56.41;101655.44;5133113;27;20047;-66
2021/06/16 00:35:20;;;;;;;9.95;4.85;;;19.80;99.90;;;20.02;57.00;101653.00;5115841;27;20568;-66
2021/06/16 00:37:49;;;;;;;10.52;4.68;;;19.70;99.90;;;20.01;57.07;101653.94;5115912;27;20446;-66
2021/06/16 00:40:25;;;;;;;8.35;4.43;;;19.70;99.90;;;19.69;57.88;101651.31;5134314;27;20057;-66
2021/06/16 00:42:54;;;;;;;8.55;4.45;;;19.40;99.90;;;19.55;58.63;101649.03;5134002;27;20043;-66
2021/06/16 00:45:25;;;;;;;9.60;4.65;;;19.20;99.90;;;19.42;58.80;101647.63;5133931;27;20078;-66
2021/06/16 00:47:55;;;;;;;8.50;4.65;;;19.10;99.90;;;19.29;59.46;101645.28;5134222;27;20051;-66
2021/06/16 00:50:27;;;;;;;10.23;4.35;;;19.00;99.90;;;18.93;60.45;101621.22;5115740;27;20039;-66
2021/06/16 00:52:55;;;;;;;10.35;4.63;;;18.80;99.90;;;18.98;60.87;101652.41;5133865;27;20522;-66
2021/06/16 00:55:24;;;;;;;9.30;4.80;;;18.60;99.90;;;18.91;61.30;101638.31;5133886;27;20118;-66
2021/06/16 00:57:52;;;;;;;8.68;4.32;;;18.60;99.90;;;19.12;61.12;101647.56;5134025;27;20047;-66
2021/06/16 01:00:28;;;;;;;9.32;4.47;;;18.70;99.90;;;19.12;61.13;101640.41;5133467;27;20115;-66
2021/06/16 01:03:03;;;;;;;9.05;4.60;;;18.70;99.90;;;19.24;60.63;101642.72;5134292;27;20092;-66
2021/06/16 01:05:38;;;;;;;10.02;5.15;;;18.90;99.90;;;19.01;61.27;101636.25;5134038;28;20039;-66
2021/06/16 01:08:08;;;;;;;9.45;4.90;;;18.70;99.90;;;19.17;61.27;101624.16;5115566;28;20100;-66
2021/06/16 01:10:42;;;;;;;10.07;4.30;;;18.80;99.90;;;19.39;60.59;101625.38;5133861;28;20484;-66
2021/06/16 01:13:23;;;;;;;11.00;5.05;;;19.00;99.90;;;19.21;61.02;101626.72;5115522;28;20769;-66
2021/06/16 01:16:05;;;;;;;9.27;5.32;;;18.90;99.90;;;19.16;61.28;101626.00;5133908;28;20050;-66
2021/06/16 01:18:42;;;;;;;8.65;4.85;;;18.80;99.90;;;19.32;61.12;101618.34;5134015;28;20126;-66
2021/06/16 01:21:11;;;;;;;11.48;5.13;;;18.90;99.90;;;19.15;61.69;101629.56;5133582;28;20054;-66
2021/06/16 01:23:52;;;;;;;11.27;5.20;;;18.90;99.90;;;18.88;62.57;101623.16;5115334;28;20043;-66
2021/06/16 01:26:28;;;;;;;11.93;5.43;;;18.60;99.90;;;18.85;62.61;101617.84;5133645;28;20051;-66
2021/06/16 01:29:04;;;;;;;8.35;4.65;;;18.50;99.90;;;19.00;62.40;101627.31;5133676;28;20051;-66
2021/06/16 01:31:33;;;;;;;7.60;5.00;;;18.60;99.90;;;19.06;62.20;101611.06;5133623;28;20044;-66
2021/06/16 01:34:04;;;;;;;9.68;4.85;;;18.70;99.90;;;19.16;62.06;101615.25;5134831;27;20400;-66
2021/06/16 01:36:36;;;;;;;7.90;4.60;;;18.80;99.90;;;19.13;62.05;101584.94;5137791;27;20043;-66
2021/06/16 01:39:09;;;;;;;14.20;5.65;;;18.90;99.90;;;19.31;61.89;101616.63;5137552;27;20046;-66
2021/06/16 01:41:42;;;;;;;10.15;5.30;;;18.90;99.90;;;19.10;62.01;101599.34;5119414;27;20051;-66
2021/06/16 01:44:12;;;;;;;10.57;5.00;;;18.90;99.90;;;18.90;63.09;101605.22;5137634;27;20043;-66
2021/06/16 01:46:44;;;;;;;15.57;5.63;;;18.70;99.90;;;18.64;64.14;101602.34;5119227;27;20047;-66
2021/06/16 01:49:13;;;;;;;11.73;5.40;;;18.40;99.90;;;18.63;64.32;101599.72;5137919;27;20108;-66
2021/06/16 01:51:42;;;;;;;12.25;5.40;;;18.20;99.90;;;18.65;64.26;101604.13;5137016;27;20112;-66
2021/06/16 01:54:13;;;;;;;13.23;6.15;;;18.30;99.90;;;18.76;64.09;101601.13;5137463;27;20051;-66
2021/06/16 01:56:45;;;;;;;8.32;5.00;;;18.40;99.90;;;18.67;64.41;101590.66;5137082;27;20043;-66
2021/06/16 01:59:15;;;;;;;9.82;5.25;;;18.40;99.90;;;18.59;64.22;101560.50;5137302;27;20123;-65
2021/06/16 02:01:47;;;;;;;9.85;5.40;;;18.40;99.90;;;18.69;64.18;101587.03;5137379;27;20074;-66
2021/06/16 02:04:16;;;;;;;9.30;5.78;;;18.40;99.90;;;18.64;64.32;101594.31;5118819;27;20043;-66
2021/06/16 02:06:50;;;;;;;7.75;5.15;;;18.40;99.90;;;18.57;64.85;101590.03;5137309;27;20039;-66
2021/06/16 02:09:24;;;;;;;8.20;5.85;;;18.20;99.90;;;18.65;64.71;101582.69;5137235;27;20100;-66
2021/06/16 02:11:54;;;;;;;14.30;5.80;;;18.30;99.90;;;18.62;64.68;101579.19;5136994;27;20051;-66
2021/06/16 02:14:24;;;;;;;12.98;6.38;;;18.30;99.90;;;18.50;65.75;101584.88;5136779;27;20039;-66
2021/06/16 02:16:59;;;;;;;12.75;5.90;;;18.20;99.90;;;18.30;66.32;101582.66;5118609;27;20400;-66
2021/06/16 02:19:32;;;;;;;11.73;5.70;;;18.00;99.90;;;18.27;66.41;101572.03;5137031;27;20051;-66
2021/06/16 02:22:02;;;;;;;12.30;6.13;;;17.90;99.90;;;18.37;66.14;101573.53;5136946;27;20039;-66
2021/06/16 02:24:31;;;;;;;12.82;6.15;;;18.00;99.90;;;18.25;66.55;101578.31;5136857;27;20453;-66
2021/06/16 02:27:01;;;;;;;11.95;6.63;;;18.00;99.90;;;18.07;67.30;101584.13;5136490;27;20059;-66
2021/06/16 02:29:31;;;;;;;12.98;6.28;;;17.70;99.90;;;17.97;67.44;101578.09;5118411;27;20096;-66
2021/06/16 02:32:00;;;;;;;13.17;6.17;;;17.60;99.90;;;17.87;67.73;101568.50;5118220;27;20054;-66
2021/06/16 02:34:30;;;;;;;10.52;6.72;;;17.50;99.90;;;18.06;67.19;101561.81;5118145;27;20058;-66
2021/06/16 02:37:04;;;;;;;10.65;6.30;;;17.70;99.90;;;18.12;67.23;101558.13;5136941;27;20043;-66
2021/06/16 02:39:38;;;;;;;10.30;6.60;;;17.80;99.90;;;18.39;66.62;101552.94;5118164;27;20108;-66
2021/06/16 02:42:11;;;;;;;12.57;6.63;;;17.90;99.90;;;18.46;66.10;101548.34;5136685;27;20047;-66
2021/06/16 02:44:42;;;;;;;10.88;6.95;;;18.10;99.90;;;18.42;65.97;101543.97;5136494;27;20051;-66
2021/06/16 02:47:14;;;;;;;10.20;6.03;;;18.10;99.90;;;18.46;65.92;101546.56;5135865;27;20042;-66
2021/06/16 02:49:51;;;;;;;10.75;5.90;;;18.20;99.90;;;18.56;65.58;101540.00;5136442;27;20392;-66
2021/06/16 02:52:22;;;;;;;10.00;6.05;;;18.20;99.90;;;18.53;65.52;101547.25;5136016;27;20043;-66
2021/06/16 02:54:58;;;;;;;10.55;6.82;;;18.20;99.90;;;18.57;65.70;101538.22;5136360;27;20047;-66
2021/06/16 02:57:30;;;;;;;10.45;5.88;;;18.20;99.90;;;18.66;65.02;101538.00;5135892;27;20035;-66
2021/06/16 03:00:00;;;;;;;15.07;6.32;;;18.40;99.90;;;18.76;65.07;101542.16;5136074;27;20063;-66
2021/06/16 03:02:30;;;;;;;12.77;6.70;;;18.40;99.90;;;18.81;65.03;101534.91;5117695;27;20074;-66
2021/06/16 03:05:00;;;;;;;13.70;6.40;;;18.50;99.90;;;18.75;64.70;101535.94;5135905;27;20051;-66
2021/06/16 03:07:30;;;;;;;12.17;6.83;;;18.50;99.90;;;18.57;65.23;101523.03;5135809;27;20524;-66
2021/06/16 03:10:00;;;;;;;12.27;6.88;;;18.40;99.90;;;18.34;65.22;101485.22;5117584;27;20050;-66
2021/06/16 03:12:31;;;;;;;13.48;6.47;;;18.40;99.90;;;18.62;65.49;101533.66;5135924;27;20434;-66
2021/06/16 03:15:00;;;;;;;17.65;7.25;;;18.30;99.90;;;18.44;65.79;101515.38;5135700;27;20125;-66
2021/06/16 03:17:29;;;;;;;13.88;6.40;;;18.30;99.90;;;18.34;66.28;101532.56;5135553;27;20082;-66
2021/06/16 03:19:59;;;;;;;13.70;6.68;;;18.10;99.90;;;18.21;66.77;101539.16;5135835;27;20051;-66
2021/06/16 03:22:30;;;;;;;16.27;7.05;;;18.00;99.90;;;18.11;67.18;101529.56;5136021;27;20062;-66
2021/06/16 03:24:59;;;;;;;14.45;7.25;;;17.90;99.90;;;18.16;67.01;101525.84;5135444;27;20047;-66
2021/06/16 03:27:30;;;;;;;13.02;7.45;;;17.80;99.90;;;18.16;67.01;101517.81;5135874;27;20039;-66
2021/06/16 03:29:59;;;;;;;;;;;17.90;99.90;;;18.07;66.67;101502.00;5117311;27;20061;-66
2021/06/16 03:32:28;;;;;;;18.02;7.82;;;18.00;99.90;;;18.26;66.77;101527.41;5135253;27;19973;-66
2021/06/16 03:34:56;;;;;;;18.17;8.25;;;18.00;99.90;;;18.46;66.64;101519.78;5135212;27;20493;-66
2021/06/16 03:37:27;;;;;;;12.05;7.03;;;18.10;99.90;;;18.33;66.70;101517.41;5135436;27;20043;-66
2021/06/16 03:39:57;;;;;;;11.63;6.82;;;18.00;99.90;;;18.35;66.61;101519.09;5135226;27;20043;-66
2021/06/16 03:42:25;;;;;;;11.57;6.63;;;18.10;99.90;;;18.31;66.79;101506.72;5135348;27;20122;-66
2021/06/16 03:44:57;;;;;;;17.52;7.35;;;18.00;99.90;;;18.36;66.37;101509.28;5135254;27;20072;-66
2021/06/16 03:47:30;;;;;;;16.27;7.95;;;18.00;99.90;;;18.26;66.92;101508.66;5135290;27;20050;-66
2021/06/16 03:50:01;;;;;;;14.25;7.78;;;17.90;99.90;;;18.31;66.91;101512.06;5135289;27;20037;-66
2021/06/16 03:52:30;;;;;;;15.10;8.02;;;18.00;99.90;;;18.14;67.23;101495.56;5135138;27;20050;-66
2021/06/16 03:55:00;;;;;;;14.70;7.07;;;17.90;99.90;;;18.16;67.24;101504.44;5134876;27;20053;-66
2021/06/16 03:57:29;;;;;;;19.10;8.20;;;17.80;99.90;;;18.15;67.37;101494.66;5134315;27;20091;-66
2021/06/16 03:59:59;;;;;;;13.07;7.85;;;17.80;99.90;;;18.24;67.27;101497.09;5134816;27;20058;-66
2021/06/16 04:02:28;;;;;;;15.35;7.60;;;17.90;99.90;;;17.88;67.00;101425.75;5135039;27;20045;-66
2021/06/16 04:05:02;;;;;;;14.45;7.75;;;18.00;99.90;;;18.27;67.13;101498.81;5116451;27;20068;-66
2021/06/16 04:07:31;;;;;;;16.40;7.40;;;18.00;99.90;;;18.20;67.38;101502.56;5134828;27;20035;-66
2021/06/16 04:10:00;;;;;;;13.10;8.27;;;17.90;99.90;;;18.17;68.03;101498.19;5134816;27;20050;-66
2021/06/16 04:12:29;;;;;;;15.45;8.45;;;17.80;99.90;;;18.04;68.27;101502.94;5116207;27;20492;-66
2021/06/16 04:14:59;;;;;;;14.88;7.45;;;17.80;99.90;;;17.84;69.16;101499.91;5116297;27;20130;-67
2021/06/16 04:17:27;;;;;;;12.65;7.30;;;17.60;99.90;;;18.08;68.92;101501.06;5134422;27;20519;-67
2021/06/16 04:19:56;;;;;;;15.75;8.43;;;17.70;99.90;;;18.20;68.31;101498.09;5116200;27;20139;-66
2021/06/16 04:22:24;;;;;;;15.90;8.98;;;17.80;99.90;;;18.17;68.49;101497.28;5116381;27;20053;-66
2021/06/16 04:24:53;;;;;;;12.50;8.38;;;17.80;99.90;;;18.08;68.98;101485.00;5134447;27;20115;-66
2021/06/16 04:27:21;;;;;;;12.02;7.85;;;17.80;99.90;;;18.32;68.42;101491.53;5134543;27;20043;-67
2021/06/16 04:29:50;;;;;;;20.02;8.38;;;17.90;99.90;;;18.32;68.75;101481.69;5134218;27;20162;-66
2021/06/16 04:32:21;;;;;;;13.40;7.88;;;18.00;99.90;;;18.26;68.44;101483.66;5115997;27;20062;-66
2021/06/16 04:34:49;;;;;;;11.77;7.60;;;18.00;99.90;;;18.24;68.75;101489.06;5115895;27;20445;-66
2021/06/16 04:37:18;;;;;;;18.08;8.30;;;18.00;99.90;;;18.24;68.94;101486.38;5134060;27;20111;-66
2021/06/16 04:39:46;;;;;;;15.65;9.00;;;18.00;99.90;;;18.31;68.96;101487.09;5134293;27;20084;-66
2021/06/16 04:42:15;;;;;;;15.20;8.60;;;17.90;99.90;;;18.32;68.68;101484.38;5115780;27;20046;-66
2021/06/16 04:44:43;;;;;;;17.25;8.60;;;18.00;99.90;;;18.23;68.94;101492.66;5115722;27;20043;-66
2021/06/16 04:47:12;;;;;;;15.63;8.70;;;17.90;99.90;;;18.40;69.27;101489.53;5134198;27;20077;-66
2021/06/16 04:49:44;;;;;;;18.33;8.27;;;18.00;99.90;;;18.13;69.52;101458.13;5115661;27;20493;-67
2021/06/16 04:52:13;;;;;;;18.70;8.80;;;17.90;99.90;;;18.37;69.52;101487.81;5133973;27;20063;-66
2021/06/16 04:54:42;;;;;;;15.93;8.40;;;18.00;99.90;;;18.31;69.90;101485.28;5133745;27;20066;-66
2021/06/16 04:57:10;;;;;;;16.50;8.43;;;18.00;99.90;;;18.57;69.10;101493.56;5115464;28;20061;-66
2021/06/16 04:59:39;;;;;;;13.43;8.15;;;18.10;99.90;;;18.67;68.70;101483.47;5133947;27;20047;-66
2021/06/16 05:02:07;;;;;;;19.50;9.30;;;18.20;99.90;;;18.72;68.56;101478.84;5134051;27;20048;-67
2021/06/16 05:04:36;;;;;;;13.73;8.43;;;18.30;99.90;;;18.87;67.97;101479.28;5133945;27;20035;-66
2021/06/16 05:07:06;;;;;;;14.85;8.43;;;18.50;99.90;;;19.00;67.66;101476.25;5133966;28;20059;-66
2021/06/16 05:09:34;;;;;;;14.15;8.35;;;18.60;99.90;;;18.91;67.37;101462.19;5133367;27;20082;-66
2021/06/16 05:12:03;;;;;;;17.45;8.52;;;18.70;99.90;;;19.20;66.81;101473.88;5133478;28;20112;-66
2021/06/16 05:14:32;;;;;;;16.52;8.38;;;18.90;99.90;;;19.31;66.39;101471.75;5133817;28;20126;-66
2021/06/16 05:17:00;;;;;;;17.30;9.05;;;19.00;99.90;;;19.45;66.11;101474.91;5133458;28;20449;-66
2021/06/16 05:19:29;;;;;;;23.73;8.10;;;19.00;99.90;;;19.50;65.67;101472.97;5133801;28;20043;-66
2021/06/16 05:22:06;;;;;;;15.02;8.10;;;19.10;99.90;;;19.50;65.43;101468.47;5133486;28;20045;-66
2021/06/16 05:24:35;;;;;;;15.32;8.15;;;19.20;99.90;;;19.66;65.15;101466.19;5133750;28;20043;-66
2021/06/16 05:27:05;;;;;;;19.92;8.90;;;19.30;99.90;;;19.74;65.27;101464.13;5114976;28;20071;-66
2021/06/16 05:29:34;;;;;;;13.40;8.05;;;19.30;99.90;;;19.72;64.98;101463.31;5115320;28;20436;-66
2021/06/16 05:32:03;;;;;;;15.65;7.80;;;19.40;99.90;;;19.67;65.45;101458.06;5133633;28;20039;-66
2021/06/16 05:34:32;;;;;;;18.50;7.75;;;19.30;99.90;;;19.74;64.98;101450.72;5133479;28;20075;-66
2021/06/16 05:37:01;;;;;;;15.05;7.72;;;19.40;99.90;;;19.65;65.78;101441.13;5115243;28;20058;-66
2021/06/16 05:39:31;;;;;;;14.15;8.32;;;19.30;99.90;;;19.78;65.51;101447.00;5133609;28;20074;-66
2021/06/16 05:42:00;;;;;;;20.75;9.05;;;19.40;99.90;;;19.80;64.57;101439.78;5133780;28;20145;-66
2021/06/16 05:44:29;;;;;;;14.05;8.30;;;19.40;99.90;;;20.06;64.51;101450.50;5133580;28;20059;-66
2021/06/16 05:46:57;;;;;;;17.33;7.95;;;19.60;99.90;;;20.18;64.38;101444.75;5115098;28;20047;-66
2021/06/16 05:49:26;;;;;;;18.05;7.75;;;19.70;99.90;;;20.09;63.43;101436.09;5115117;28;20051;-66
2021/06/16 05:51:55;;;;;;;13.90;7.10;;;19.70;99.90;;;20.36;64.22;101445.91;5133553;28;20044;-66
2021/06/16 05:54:23;;;;;;;17.20;8.35;;;19.90;99.90;;;20.20;63.10;101428.56;5133317;28;20065;-66
2021/06/16 05:56:54;;;;;;;19.40;7.97;;;19.90;99.90;;;20.29;62.32;101447.94;5133167;28;20050;-66
2021/06/16 05:59:23;;;;;;;17.02;7.97;;;19.90;99.90;;;20.43;62.92;101452.81;5133015;28;20054;-65
2021/06/16 06:01:51;;;;;;;16.48;7.85;;;20.00;99.90;;;20.46;63.64;101450.03;5114956;28;20051;-66
2021/06/16 06:04:20;;;;;;;19.75;7.57;;;20.00;99.90;;;20.50;62.58;101443.59;5133155;28;20043;-66
2021/06/16 06:06:48;;;;;;;20.88;7.90;;;20.10;99.90;;;20.40;62.95;101436.81;5114895;28;20460;-66
2021/06/16 06:09:17;;;;;;;23.83;8.00;;;20.00;99.90;;;20.59;62.83;101438.78;5133012;28;20097;-67
2021/06/16 06:11:45;;;;;;;19.73;7.63;;;20.10;99.90;;;20.73;62.68;101440.94;5114881;28;20043;-67
2021/06/16 06:14:15;;;;;;;16.58;7.43;;;20.30;99.90;;;20.81;61.47;101436.16;5133176;28;20096;-66
2021/06/16 06:16:44;;;;;;;16.38;7.95;;;20.40;99.90;;;20.91;61.50;101429.50;5133215;28;20051;-67
2021/06/16 06:19:12;;;;;;;15.35;7.65;;;20.50;99.90;;;21.15;60.87;101419.66;5132957;28;20039;-67
2021/06/16 06:21:41;;;;;;;19.00;7.65;;;20.70;99.90;;;21.16;60.89;101416.00;5135107;27;20051;-67
2021/06/16 06:24:10;;;;;;;18.20;7.53;;;20.80;99.90;;;21.32;62.04;101426.13;5118157;27;20088;-67
2021/06/16 06:26:39;;;;;;;16.23;7.50;;;20.80;99.90;;;21.66;61.77;101414.84;5136486;27;20061;-67
2021/06/16 06:29:08;;;;;;;18.23;6.95;;;21.10;99.90;;;21.67;59.88;101416.63;5118243;27;20480;-67
2021/06/16 06:31:38;;;;;;;16.40;7.60;;;21.30;99.90;;;21.60;58.87;101412.44;5136684;27;20066;-66
2021/06/16 06:34:07;;;;;;;12.02;6.72;;;21.30;99.90;;;21.71;60.29;101414.66;5118290;27;20503;-66
2021/06/16 06:36:35;;;;;;;16.17;7.40;;;21.30;99.90;;;21.87;59.13;101405.94;5118253;27;20500;-67
2021/06/16 06:39:05;;;;;;;15.00;7.53;;;21.50;99.90;;;22.13;59.84;101403.00;5136337;27;20042;-67
2021/06/16 06:41:33;;;;;;;15.40;7.30;;;21.70;99.90;;;22.32;58.53;101405.75;5136232;27;20046;-67
2021/06/16 06:44:02;;;;;;;16.08;7.13;;;21.90;99.90;;;22.10;58.04;101410.34;5135768;27;20035;-67
2021/06/16 06:46:31;;;;;;;18.00;7.03;;;21.90;99.90;;;22.30;58.18;101408.50;5136480;27;20127;-67
2021/06/16 06:49:01;;;;;;;13.18;6.40;;;21.90;99.90;;;22.50;57.36;101409.44;5136263;27;20050;-67
2021/06/16 06:51:30;;;;;;;12.63;5.40;;;22.10;99.90;;;22.48;56.36;101412.22;5136020;27;20039;-67
2021/06/16 06:53:58;;;;;;;15.15;6.55;;;22.10;99.90;;;22.47;56.80;101415.88;5135969;27;20459;-67
2021/06/16 06:56:27;;;;;;;11.68;5.85;;;22.10;99.90;;;22.53;55.60;101403.94;5136452;27;20039;-66
2021/06/16 06:58:55;;;;;;;11.85;5.50;;;22.20;99.90;;;22.70;56.14;101406.75;5117759;27;20458;-67
2021/06/16 07:01:24;;;;;;;12.77;5.65;;;22.20;99.90;;;22.55;54.70;101397.50;5135814;27;20058;-66
2021/06/16 07:03:52;;;;;;;15.98;5.57;;;22.20;99.90;;;22.50;53.77;101393.25;5135653;27;20043;-67
2021/06/16 07:06:22;;;;;;;12.00;5.43;;;22.10;99.90;;;22.55;53.58;101386.72;5117572;27;20095;-67
2021/06/16 07:08:51;;;;;;;12.35;6.15;;;22.20;99.90;;;22.75;54.46;101388.53;5117571;27;20468;-66
2021/06/16 07:11:20;;;;;;;10.00;5.50;;;22.30;99.90;;;22.70;53.02;101393.28;5135966;27;20103;-66
2021/06/16 07:13:49;;;;;;;12.18;5.10;;;22.40;99.90;;;22.81;54.03;101393.66;5135907;27;20047;-66
2021/06/16 07:16:17;;;;;;;13.35;5.70;;;22.40;99.90;;;22.78;53.03;101389.28;5135860;27;20095;-66
2021/06/16 07:18:46;;;;;;;10.27;5.82;;;22.40;99.90;;;22.80;52.53;101391.91;5117385;27;20407;-67
2021/06/16 07:21:17;;;;;;;13.32;5.10;;;22.40;99.90;;;22.87;52.05;101386.16;5135857;27;20047;-66
2021/06/16 07:23:47;;;;;;;11.18;5.20;;;22.50;99.90;;;23.07;52.76;101386.06;5135423;27;20100;-67
2021/06/16 07:26:17;;;;;;;9.55;4.47;;;22.60;99.90;;;23.23;50.84;101375.41;5135717;27;20043;-67
2021/06/16 07:28:46;;;;;;;10.65;5.00;;;22.80;99.90;;;23.34;51.47;101381.22;5135595;27;20159;-66
2021/06/16 07:31:14;;;;;;;13.27;5.10;;;22.90;99.90;;;23.34;50.46;101380.34;5135462;27;20040;-66
2021/06/16 07:33:43;;;;;;;8.68;5.10;;;23.00;99.90;;;23.32;51.79;101376.84;5116965;27;20480;-66
2021/06/16 07:36:11;;;;;;;12.90;5.15;;;22.90;99.90;;;23.18;51.34;101356.75;5135380;27;20043;-66
2021/06/16 07:38:40;;;;;;;10.25;5.00;;;22.90;99.90;;;23.55;51.58;101379.28;5135413;27;20074;-66
2021/06/16 07:41:17;;;;;;;8.70;4.68;;;23.10;99.90;;;23.67;51.77;101378.66;5116976;27;20484;-66
2021/06/16 07:43:46;;;;;;;10.68;4.82;;;23.20;99.90;;;23.76;51.36;101380.91;5135238;27;20073;-66
2021/06/16 07:46:14;;;;;;;10.73;5.50;;;23.30;99.90;;;23.58;49.96;101355.69;5116757;27;20038;-66
2021/06/16 07:48:43;;;;;;;11.60;5.63;;;23.40;99.90;;;23.70;49.98;101378.50;5135224;27;20047;-67
2021/06/16 07:51:11;;;;;;;7.78;4.85;;;23.40;99.90;;;23.60;50.41;101359.19;5134899;27;20488;-66
2021/06/16 07:53:41;;;;;;;9.10;5.68;;;23.30;99.90;;;23.83;50.33;101383.19;5135139;27;20051;-66
2021/06/16 07:56:10;;;;;;;11.15;6.13;;;23.40;99.90;;;23.86;50.64;101374.06;5116452;27;20047;-66
2021/06/16 07:58:39;;;;;;;11.57;5.88;;;23.50;99.90;;;24.04;51.38;101365.91;5135072;27;20116;-67
2021/06/16 08:01:08;;;;;;;9.48;5.50;;;23.60;99.90;;;24.02;51.63;101370.53;5134854;27;20062;-67
2021/06/16 08:03:37;;;;;;;14.18;6.03;;;23.60;99.90;;;24.07;50.70;101365.78;5116497;27;20040;-66
2021/06/16 08:06:06;;;;;;;9.45;5.53;;;23.70;99.90;;;24.12;50.73;101376.31;5134832;27;20050;-67
2021/06/16 08:08:34;;;;;;;16.83;6.35;;;23.70;99.90;;;24.06;49.96;101369.41;5134392;27;20043;-66
2021/06/16 08:11:04;;;;;;;11.48;7.10;;;23.70;99.90;;;23.54;50.00;101273.03;5116373;27;20058;-66
2021/06/16 08:13:33;;;;;;;10.55;6.40;;;23.70;99.90;;;23.93;49.97;101373.69;5134614;27;20047;-66
2021/06/16 08:16:03;;;;;;;11.05;6.72;;;23.60;99.90;;;23.88;49.29;101367.66;5134632;27;20043;-66
2021/06/16 08:18:31;;;;;;;13.27;6.72;;;23.50;99.90;;;24.13;49.89;101370.88;5134453;27;20046;-67
2021/06/16 08:21:00;;;;;;;10.02;6.10;;;23.70;99.90;;;24.24;50.86;101367.56;5134360;27;20119;-66
2021/06/16 08:23:29;;;;;;;10.63;5.85;;;23.80;99.90;;;24.51;50.39;101366.09;5134485;27;20055;-66
2021/06/16 08:25:58;;;;;;;16.90;6.47;;;24.10;99.90;;;24.59;50.27;101357.56;5134429;27;20427;-66
2021/06/16 08:28:26;;;;;;;13.43;5.97;;;24.20;99.90;;;24.66;49.59;101369.81;5134482;27;20092;-66
2021/06/16 08:30:54;;;;;;;10.48;6.15;;;24.30;99.90;;;24.60;49.12;101353.91;5134069;27;20441;-66
2021/06/16 08:33:24;;;;;;;9.75;6.00;;;24.30;99.90;;;24.67;50.51;101352.63;5115996;27;20051;-66
2021/06/16 08:35:53;;;;;;;11.63;6.13;;;24.20;99.90;;;24.56;49.73;101347.81;5134213;27;20424;-67
2021/06/16 08:38:21;;;;;;;12.52;6.88;;;24.20;99.90;;;24.78;49.45;101347.50;5134094;27;20043;-67
2021/06/16 08:40:50;;;;;;;10.85;6.22;;;24.40;99.90;;;24.24;48.95;101259.41;5115783;27;20442;-66
2021/06/16 08:43:19;;;;;;;12.48;6.05;;;24.40;99.90;;;24.73;49.44;101349.59;5133658;27;20047;-67
2021/06/16 08:45:50;;;;;;;12.02;6.03;;;24.30;99.90;;;24.97;49.17;101359.94;5134221;27;20050;-67
2021/06/16 08:48:18;;;;;;;11.55;6.10;;;24.50;99.90;;;24.84;49.25;101350.75;5133998;27;20071;-67
2021/06/16 08:50:49;;;;;;;14.38;6.00;;;24.50;99.90;;;24.90;49.65;101363.97;5134159;27;20091;-67
2021/06/16 08:53:17;;;;;;;17.75;6.70;;;24.50;99.90;;;24.87;49.26;101358.69;5133920;27;20392;-67
2021/06/16 08:55:45;;;;;;;14.85;6.97;;;24.50;99.90;;;25.05;48.99;101357.69;5133849;27;20186;-67
2021/06/16 08:58:14;;;;;;;12.82;6.53;;;24.60;99.90;;;25.00;48.94;101359.78;5115533;27;20059;-66
2021/06/16 09:00:45;;;;;;;13.48;7.00;;;24.60;99.90;;;24.93;49.01;101366.47;5133916;27;20113;-67
2021/06/16 09:03:13;;;;;;;15.38;6.20;;;24.60;99.90;;;25.09;50.17;101342.13;5133855;27;20535;-67
2021/06/16 09:05:43;;;;;;;13.50;7.20;;;24.60;99.90;;;25.03;49.12;101362.31;5133965;27;20070;-67
2021/06/16 09:08:19;;;;;;;8.35;6.07;;;24.70;99.90;;;25.08;48.51;101321.44;5115378;28;20146;-67
2021/06/16 09:10:49;;;;;;;11.23;6.95;;;24.80;99.90;;;25.19;47.95;101342.47;5115460;28;20073;-67
2021/06/16 09:13:28;;;;;;;7.88;5.65;;;24.80;99.90;;;25.31;49.55;101342.66;5133887;28;20046;-67
2021/06/16 09:15:57;;;;;;;13.73;5.53;;;24.90;99.90;;;25.25;49.01;101343.00;5133599;28;20377;-67
2021/06/16 09:18:27;;;;;;;8.73;6.00;;;24.80;99.90;;;25.05;48.32;101303.53;5133482;28;20039;-67
2021/06/16 09:20:59;;;;;;;9.40;6.38;;;24.90;99.90;;;25.21;48.30;101332.44;5133554;28;20469;-67
2021/06/16 09:23:30;;;;;;;10.32;5.80;;;24.80;99.90;;;25.48;50.04;101339.00;5133821;28;20423;-67
2021/06/16 09:26:12;;;;;;;12.38;6.60;;;25.00;99.90;;;25.12;47.14;101335.66;5133392;28;20043;-66
2021/06/16 09:28:44;;;;;;;11.48;6.30;;;24.80;99.90;;;25.31;47.90;101339.06;5134081;28;20039;-67
2021/06/16 09:31:16;;;;;;;6.72;5.40;;;24.90;99.90;;;25.37;48.97;101326.06;5115410;28;20396;-67
2021/06/16 09:33:45;;;;;;;8.02;5.55;;;25.00;99.90;;;25.46;48.85;101322.81;5133464;28;20047;-67
2021/06/16 09:36:16;;;;;;;8.48;5.60;;;25.00;99.90;;;25.88;49.20;101333.81;5133328;28;20039;-67
2021/06/16 09:38:49;;;;;;;8.43;6.03;;;25.40;99.90;;;25.68;46.45;101326.03;5133381;28;20043;-67
2021/06/16 09:41:20;;;;;;;9.38;6.18;;;25.40;99.90;;;25.44;47.23;101332.88;5133657;28;20054;-67
2021/06/16 09:43:54;;;;;;;10.07;5.82;;;25.10;99.90;;;25.62;48.92;101322.78;5133558;28;20055;-67
2021/06/16 09:46:23;;;;;;;10.02;6.63;;;25.20;99.90;;;25.56;47.42;101343.00;5133578;28;20043;-67
2021/06/16 09:48:53;;;;;;;12.52;6.47;;;25.20;99.90;;;25.69;48.42;101321.47;5133203;28;20495;-67
2021/06/16 09:51:27;;;;;;;10.95;5.95;;;25.20;99.90;;;25.89;47.55;101313.88;5133574;28;20047;-67
2021/06/16 09:54:13;;;;;;;7.45;5.72;;;25.50;99.90;;;25.96;48.08;101302.66;5114994;28;20051;-67
2021/06/16 09:56:44;;;;;;;9.75;5.35;;;25.70;99.90;;;26.39;46.94;101307.19;5135583;27;20100;-67
2021/06/16 09:59:15;;;;;;;8.77;5.72;;;25.90;99.90;;;26.18;46.06;101319.38;5137425;27;20051;-67
2021/06/16 10:01:48;;;;;;;;;;;25.90;99.90;;;26.36;45.41;101304.69;5137383;27;20062;-67
2021/06/16 10:04:42;;;;;;;14.60;6.40;;;26.00;99.90;;;26.22;45.24;101315.53;5137104;27;20005;-67
2021/06/16 10:07:20;;;;;;;11.40;5.97;;;25.90;99.90;;;26.03;47.33;101313.06;5137048;27;20126;-67
2021/06/16 10:10:03;;;;;;;9.43;5.75;;;25.70;99.90;;;25.71;46.77;101230.97;5118869;27;20047;-67
2021/06/16 10:12:35;;;;;;;8.50;6.57;;;25.70;99.90;;;25.95;45.47;101307.22;5137168;27;20073;-67
2021/06/16 10:15:07;;;;;;;8.93;6.18;;;25.60;99.90;;;26.08;46.45;101301.94;5137157;27;20055;-67
2021/06/16 10:17:36;;;;;;;8.35;6.30;;;25.70;99.90;;;26.01;45.89;101304.13;5137068;27;20043;-67
2021/06/16 10:20:08;;;;;;;10.77;6.40;;;25.70;99.90;;;25.91;46.33;101290.28;5136939;27;20492;-67